createdAt,value
2023-03-04T00:00:15.451Z,21.80
2023-03-04T00:02:43.577Z,21.20
2023-03-04T00:05:13.129Z,24.60
2023-03-04T00:07:41.180Z,17.80
2023-03-04T00:10:10.309Z,29.60
2023-03-04T00:12:38.650Z,20.80
2023-03-04T00:15:07.611Z,21.00
2023-03-04T00:17:35.630Z,21.40
2023-03-04T00:20:03.822Z,25.00
2023-03-04T00:22:33.294Z,24.40
2023-03-04T00:25:01.393Z,20.20
2023-03-04T00:27:29.398Z,24.00
2023-03-04T00:29:57.378Z,18.20
2023-03-04T00:32:25.448Z,23.00
2023-03-04T00:34:54.222Z,23.20
2023-03-04T00:37:22.530Z,23.60
2023-03-04T00:39:52.017Z,24.40
2023-03-04T00:42:20.037Z,16.20
2023-03-04T00:44:49.704Z,24.40
2023-03-04T00:47:17.762Z,16.80
2023-03-04T00:49:45.770Z,19.20
2023-03-04T00:52:13.858Z,20.40
2023-03-04T00:54:42.464Z,17.60
2023-03-04T00:57:11.877Z,20.60
2023-03-04T00:59:40.828Z,17.00
2023-03-04T01:02:08.916Z,22.60
2023-03-04T01:04:37.263Z,13.40
2023-03-04T01:07:05.649Z,9.60
2023-03-04T01:09:33.785Z,17.00
2023-03-04T01:12:01.861Z,16.40
2023-03-04T01:14:31.833Z,18.80
2023-03-04T01:17:00.702Z,25.40
2023-03-04T01:19:28.806Z,14.80
2023-03-04T01:21:56.854Z,8.60
2023-03-04T01:24:25.208Z,15.60
2023-03-04T01:26:53.337Z,15.00
2023-03-04T01:29:21.356Z,17.60
2023-03-04T01:31:51.061Z,18.60
2023-03-04T01:34:19.245Z,17.40
2023-03-04T01:36:47.376Z,16.00
2023-03-04T01:39:15.441Z,21.20
2023-03-04T01:41:44.139Z,20.60
2023-03-04T01:44:12.142Z,18.80
2023-03-04T01:46:40.503Z,19.20
2023-03-04T01:49:10.974Z,13.20
2023-03-04T01:51:39.029Z,10.80
2023-03-04T01:54:07.111Z,19.80
2023-03-04T01:56:37.206Z,21.80
2023-03-04T01:59:09.620Z,19.20
2023-03-04T02:01:37.820Z,17.40
2023-03-04T02:04:06.326Z,19.00
2023-03-04T02:06:35.976Z,14.00
2023-03-04T02:09:05.782Z,12.60
2023-03-04T02:11:36.211Z,20.20
2023-03-04T02:14:07.677Z,7.80
2023-03-04T02:16:35.813Z,20.40
2023-03-04T02:19:03.888Z,11.80
2023-03-04T02:21:32.971Z,15.00
2023-03-04T02:24:06.909Z,17.60
2023-03-04T02:26:36.694Z,12.00
2023-03-04T02:29:04.787Z,15.00
2023-03-04T02:31:33.680Z,13.40
2023-03-04T02:34:02.705Z,14.80
2023-03-04T02:36:30.834Z,15.80
2023-03-04T02:39:03.319Z,10.00
2023-03-04T02:41:31.909Z,19.40
2023-03-04T02:44:01.368Z,9.20
2023-03-04T02:46:29.512Z,14.60
2023-03-04T02:48:57.610Z,11.20
2023-03-04T02:51:25.697Z,13.20
2023-03-04T02:53:53.783Z,16.20
2023-03-04T02:56:21.875Z,15.80
2023-03-04T02:58:49.897Z,13.00
2023-03-04T03:01:19.524Z,11.60
2023-03-04T03:03:47.710Z,12.80
2023-03-04T03:06:15.750Z,8.40
2023-03-04T03:08:43.799Z,9.00
2023-03-04T03:11:11.839Z,12.00
2023-03-04T03:13:39.958Z,11.80
2023-03-04T03:16:08.625Z,7.40
2023-03-04T03:18:38.251Z,7.80
2023-03-04T03:21:06.581Z,10.20
2023-03-04T03:23:34.665Z,12.20
2023-03-04T03:26:02.861Z,9.40
2023-03-04T03:28:30.890Z,12.60
2023-03-04T03:30:59.324Z,9.60
2023-03-04T03:33:27.310Z,10.40
2023-03-04T03:35:56.844Z,10.60
2023-03-04T03:38:25.212Z,10.60
2023-03-04T03:40:53.575Z,8.20
2023-03-04T03:43:21.894Z,9.00
2023-03-04T03:45:49.990Z,10.80
2023-03-04T03:48:19.100Z,9.20
2023-03-04T03:50:47.116Z,9.40
2023-03-04T03:53:16.824Z,4.80
2023-03-04T03:55:44.926Z,9.00
2023-03-04T03:58:12.951Z,10.00
2023-03-04T04:00:41.068Z,12.40
2023-03-04T04:03:09.237Z,7.00
2023-03-04T04:05:37.305Z,4.00
2023-03-04T04:08:05.726Z,5.40
2023-03-04T04:10:35.162Z,0.00
2023-03-04T04:13:03.359Z,3.40
2023-03-04T04:15:31.709Z,6.00
2023-03-04T04:17:59.776Z,9.00
2023-03-04T04:20:28.830Z,6.80
2023-03-04T04:22:57.151Z,9.00
2023-03-04T04:25:25.305Z,3.40
2023-03-04T04:27:54.793Z,12.20
2023-03-04T04:30:22.805Z,4.00
2023-03-04T04:32:50.813Z,7.00
2023-03-04T04:35:19.188Z,10.40
2023-03-04T04:37:47.578Z,13.20
2023-03-04T04:40:16.830Z,5.60
2023-03-04T04:42:44.904Z,8.20
2023-03-04T04:45:14.454Z,5.80
2023-03-04T04:47:42.538Z,6.80
2023-03-04T04:50:11.589Z,3.80
2023-03-04T04:52:39.648Z,3.40
2023-03-04T04:55:08.707Z,3.00
2023-03-04T04:57:36.754Z,6.20
2023-03-04T05:00:05.536Z,1.80
2023-03-04T05:02:36.563Z,6.60
2023-03-04T05:05:04.784Z,3.20
2023-03-04T05:07:32.852Z,2.40
2023-03-04T05:10:00.918Z,5.20
2023-03-04T05:12:28.990Z,5.60
2023-03-04T05:14:57.004Z,4.80
2023-03-04T05:17:24.973Z,4.40
2023-03-04T05:19:54.703Z,6.00
2023-03-04T05:22:22.807Z,9.00
2023-03-04T05:24:50.825Z,6.00
2023-03-04T05:27:21.892Z,6.00
2023-03-04T05:29:50.113Z,9.00
2023-03-04T05:32:18.521Z,5.20
2023-03-04T05:34:46.608Z,0.20
2023-03-04T05:37:16.033Z,3.20
2023-03-04T05:39:44.050Z,4.00
2023-03-04T05:42:12.076Z,7.20
2023-03-04T05:44:40.087Z,3.80
2023-03-04T05:47:08.117Z,6.00
2023-03-04T05:49:36.485Z,5.20
2023-03-04T05:52:04.586Z,4.00
2023-03-04T05:54:34.728Z,6.80
2023-03-04T05:57:02.813Z,6.40
2023-03-04T05:59:30.883Z,7.60
2023-03-04T06:01:58.882Z,3.40
2023-03-04T06:04:27.292Z,7.80
2023-03-04T06:06:55.649Z,5.40
2023-03-04T06:09:23.805Z,7.60
2023-03-04T06:11:53.196Z,4.00
2023-03-04T06:14:21.365Z,5.40
2023-03-04T06:16:49.483Z,4.40
2023-03-04T06:19:17.624Z,6.40
2023-03-04T06:21:45.665Z,6.20
2023-03-04T06:24:13.685Z,6.00
2023-03-04T06:26:41.754Z,6.40
2023-03-04T06:29:11.263Z,4.40
2023-03-04T06:31:41.758Z,5.60
2023-03-04T06:34:09.859Z,8.00
2023-03-04T06:36:37.883Z,6.80
2023-03-04T06:39:06.095Z,7.00
2023-03-04T06:41:34.705Z,4.00
2023-03-04T06:44:02.890Z,3.00
2023-03-04T06:46:32.486Z,6.40
2023-03-04T06:49:00.501Z,4.40
2023-03-04T06:51:28.534Z,0.80
2023-03-04T06:53:56.565Z,2.60
2023-03-04T06:56:24.898Z,1.40
2023-03-04T06:58:53.057Z,6.00
2023-03-04T07:01:21.910Z,3.00
2023-03-04T07:03:51.936Z,4.00
2023-03-04T07:06:20.991Z,6.00
2023-03-04T07:08:49.167Z,1.00
2023-03-04T07:11:17.310Z,3.40
2023-03-04T07:13:45.925Z,5.20
2023-03-04T07:16:17.764Z,1.00
2023-03-04T07:18:45.858Z,3.60
2023-03-04T07:21:15.572Z,2.80
2023-03-04T07:23:46.501Z,1.00
2023-03-04T07:26:14.799Z,3.00
2023-03-04T07:28:43.575Z,6.40
2023-03-04T07:31:13.900Z,3.80
2023-03-04T07:33:42.043Z,0.80
2023-03-04T07:36:11.226Z,2.60
2023-03-04T07:38:40.703Z,7.60
2023-03-04T07:41:08.765Z,3.20
2023-03-04T07:43:37.015Z,2.20
2023-03-04T07:46:05.225Z,3.00
2023-03-04T07:48:38.827Z,3.00
2023-03-04T07:51:11.165Z,3.40
2023-03-04T07:53:41.796Z,1.80
2023-03-04T07:56:11.840Z,1.40
2023-03-04T07:58:40.592Z,2.80
2023-03-04T08:01:12.122Z,5.40
2023-03-04T08:03:40.381Z,1.80
2023-03-04T08:06:09.399Z,4.00
2023-03-04T08:08:38.022Z,3.60
2023-03-04T08:11:08.094Z,2.60
2023-03-04T08:13:36.219Z,3.60
2023-03-04T08:16:04.844Z,6.00
2023-03-04T08:18:33.926Z,4.60
2023-03-04T08:21:02.728Z,1.00
2023-03-04T08:23:36.559Z,1.80
2023-03-04T08:26:10.063Z,0.00
2023-03-04T08:28:38.130Z,3.00
2023-03-04T08:31:08.089Z,5.20
2023-03-04T08:33:36.402Z,6.40
2023-03-04T08:36:04.816Z,3.00
2023-03-04T08:38:34.073Z,4.00
2023-03-04T08:41:03.168Z,6.00
2023-03-04T08:43:35.292Z,3.00
2023-03-04T08:46:03.771Z,6.00
2023-03-04T08:48:32.892Z,4.00
2023-03-04T08:51:01.009Z,3.00
2023-03-04T08:53:31.880Z,4.00
2023-03-04T08:56:00.503Z,1.80
2023-03-04T08:58:28.615Z,3.00
2023-03-04T09:00:58.385Z,4.00
2023-03-04T09:03:26.918Z,3.00
2023-03-04T09:05:55.424Z,4.80
2023-03-04T09:08:23.828Z,3.00
2023-03-04T09:10:53.483Z,2.80
2023-03-04T09:13:23.473Z,3.40
2023-03-04T09:15:54.055Z,5.60
2023-03-04T09:18:24.276Z,2.60
2023-03-04T09:20:53.213Z,2.20
2023-03-04T09:23:21.754Z,7.40
2023-03-04T09:25:52.688Z,4.00
2023-03-04T09:28:21.021Z,3.00
2023-03-04T09:30:49.524Z,7.00
2023-03-04T09:33:20.544Z,5.20
2023-03-04T09:35:50.226Z,3.00
2023-03-04T09:38:18.405Z,5.60
2023-03-04T09:40:47.931Z,6.60
2023-03-04T09:43:25.002Z,5.20
2023-03-04T09:46:00.734Z,4.80
2023-03-04T09:48:30.956Z,4.40
2023-03-04T09:51:12.469Z,7.40
2023-03-04T09:53:42.789Z,5.20
2023-03-04T09:56:11.715Z,5.20
2023-03-04T09:58:45.998Z,1.00
2023-03-04T10:01:19.594Z,4.00
2023-03-04T10:03:50.331Z,3.20
2023-03-04T10:06:23.053Z,6.00
2023-03-04T10:08:54.512Z,4.00
2023-03-04T10:11:25.484Z,7.00
2023-03-04T10:14:00.949Z,3.00
2023-03-04T10:16:32.897Z,3.40
2023-03-04T10:19:03.298Z,5.20
2023-03-04T10:21:37.299Z,2.20
2023-03-04T10:24:10.561Z,3.40
2023-03-04T10:26:38.977Z,1.00
2023-03-04T10:29:09.408Z,5.60
2023-03-04T10:31:38.472Z,2.00
2023-03-04T10:34:07.353Z,0.00
2023-03-04T10:36:45.676Z,2.60
2023-03-04T10:39:15.096Z,0.80
2023-03-04T10:41:44.589Z,3.00
2023-03-04T10:44:17.039Z,0.80
2023-03-04T10:46:45.983Z,3.00
2023-03-04T10:49:15.468Z,1.00
2023-03-04T10:51:46.740Z,3.40
2023-03-04T10:54:23.547Z,2.20
2023-03-04T10:56:56.894Z,3.20
2023-03-04T10:59:51.642Z,3.20
2023-03-04T11:02:26.970Z,3.00
2023-03-04T11:04:57.141Z,0.00
2023-03-04T11:07:27.604Z,6.20
2023-03-04T11:09:58.304Z,1.00
2023-03-04T11:12:34.089Z,6.00
2023-03-04T11:15:02.436Z,4.00
2023-03-04T11:17:33.116Z,8.00
2023-03-04T11:20:04.372Z,4.40
2023-03-04T11:22:33.934Z,4.40
2023-03-04T11:25:04.254Z,3.80
2023-03-04T11:27:43.661Z,12.00
2023-03-04T11:30:29.441Z,3.80
2023-03-04T11:33:00.814Z,1.40
2023-03-04T11:35:31.154Z,6.40
2023-03-04T11:38:03.849Z,7.00
2023-03-04T11:40:35.624Z,12.40
2023-03-04T11:43:04.898Z,10.60
2023-03-04T11:45:36.402Z,12.60
2023-03-04T11:48:08.497Z,9.60
2023-03-04T11:50:47.530Z,13.40
2023-03-04T11:53:38.507Z,16.80
2023-03-04T11:56:27.558Z,16.00
2023-03-04T11:59:18.080Z,15.20
2023-03-04T12:01:49.290Z,9.80
2023-03-04T12:04:28.843Z,12.20
2023-03-04T12:07:04.558Z,12.60
2023-03-04T12:09:43.425Z,7.00
2023-03-04T12:12:36.524Z,9.60
2023-03-04T12:15:11.876Z,10.80
2023-03-04T12:17:56.189Z,12.00
2023-03-04T12:20:39.131Z,10.80
2023-03-04T12:23:13.914Z,10.60
2023-03-04T12:25:45.660Z,15.40
2023-03-04T12:28:27.675Z,14.00
2023-03-04T12:31:40.316Z,14.80
2023-03-04T12:34:30.063Z,13.40
2023-03-04T12:37:07.878Z,15.80
2023-03-04T12:39:38.819Z,13.40
2023-03-04T12:42:15.973Z,14.60
2023-03-04T12:44:45.539Z,14.80
2023-03-04T12:47:19.811Z,13.80
2023-03-04T12:49:59.770Z,14.60
2023-03-04T12:52:33.917Z,12.40
2023-03-04T12:55:04.267Z,15.60
2023-03-04T12:57:34.413Z,12.60
2023-03-04T13:00:10.459Z,18.80
2023-03-04T13:02:48.205Z,12.20
2023-03-04T13:05:37.754Z,15.20
2023-03-04T13:08:12.330Z,18.00
2023-03-04T13:10:40.330Z,19.60
2023-03-04T13:13:38.032Z,19.60
2023-03-04T13:16:08.887Z,15.00
2023-03-04T13:18:38.426Z,13.00
2023-03-04T13:21:08.900Z,22.20
2023-03-04T13:23:36.945Z,15.60
2023-03-04T13:26:22.589Z,16.00
2023-03-04T13:28:56.213Z,15.80
2023-03-04T13:31:27.780Z,16.80
2023-03-04T13:34:02.656Z,9.40
2023-03-04T13:36:32.885Z,17.60
2023-03-04T13:39:02.167Z,11.20
2023-03-04T13:41:34.729Z,19.00
2023-03-04T13:44:06.570Z,16.80
2023-03-04T13:46:42.376Z,13.80
2023-03-04T13:49:19.538Z,9.60
2023-03-04T13:51:50.556Z,15.60
2023-03-04T13:54:21.626Z,22.40
2023-03-04T13:56:50.946Z,13.20
2023-03-04T13:59:28.482Z,16.20
2023-03-04T14:02:01.740Z,10.00
2023-03-04T14:04:32.161Z,17.00
2023-03-04T14:07:00.766Z,10.20
2023-03-04T14:09:29.901Z,15.00
2023-03-04T14:11:59.214Z,16.00
2023-03-04T14:14:32.279Z,13.80
2023-03-04T14:17:01.357Z,13.80
2023-03-04T14:19:30.085Z,18.60
2023-03-04T14:21:58.435Z,8.60
2023-03-04T14:24:26.458Z,13.80
2023-03-04T14:27:05.754Z,11.60
2023-03-04T14:29:35.766Z,10.40
2023-03-04T14:32:03.916Z,9.80
2023-03-04T14:34:33.306Z,8.20
2023-03-04T14:37:03.594Z,13.20
2023-03-04T14:39:33.212Z,6.20
2023-03-04T14:42:05.418Z,9.80
2023-03-04T14:44:39.033Z,9.40
2023-03-04T14:47:14.104Z,7.80
2023-03-04T14:49:42.567Z,8.20
2023-03-04T14:52:28.880Z,10.20
2023-03-04T14:55:05.860Z,14.80
2023-03-04T14:57:34.999Z,7.00
2023-03-04T15:00:35.395Z,3.20
2023-03-04T15:03:04.308Z,9.60
2023-03-04T15:05:33.926Z,4.40
2023-03-04T15:08:03.519Z,6.20
2023-03-04T15:10:33.054Z,6.80
2023-03-04T15:13:02.097Z,8.60
2023-03-04T15:15:41.397Z,4.00
2023-03-04T15:18:22.838Z,5.60
2023-03-04T15:20:55.385Z,7.80
2023-03-04T15:23:23.478Z,7.80
2023-03-04T15:25:53.393Z,8.60
2023-03-04T15:28:21.889Z,8.20
2023-03-04T15:30:51.793Z,7.40
2023-03-04T15:33:21.250Z,5.20
2023-03-04T15:35:53.577Z,7.00
2023-03-04T15:38:22.505Z,10.00
2023-03-04T15:40:54.019Z,5.60
2023-03-04T15:43:23.418Z,4.20
2023-03-04T15:45:54.529Z,6.80
2023-03-04T15:48:22.807Z,11.60
2023-03-04T15:50:51.684Z,6.00
2023-03-04T15:53:28.059Z,7.20
2023-03-04T15:55:56.161Z,9.40
2023-03-04T15:58:24.616Z,9.00
2023-03-04T16:00:54.455Z,6.60
2023-03-04T16:03:22.803Z,6.40
2023-03-04T16:05:51.822Z,4.00
2023-03-04T16:08:20.907Z,7.40
2023-03-04T16:10:49.324Z,7.40
2023-03-04T16:13:18.224Z,6.40
2023-03-04T16:15:49.559Z,7.00
2023-03-04T16:18:19.718Z,7.20
2023-03-04T16:20:48.710Z,6.60
2023-03-04T16:23:21.161Z,9.40
2023-03-04T16:25:56.727Z,9.80
2023-03-04T16:28:24.891Z,8.20
2023-03-04T16:30:53.837Z,4.00
2023-03-04T16:33:23.374Z,8.60
2023-03-04T16:35:52.404Z,9.40
2023-03-04T16:38:25.823Z,6.00
2023-03-04T16:40:54.315Z,3.80
2023-03-04T16:43:22.573Z,4.00
2023-03-04T16:45:50.595Z,5.60
2023-03-04T16:48:20.330Z,7.20
2023-03-04T16:50:50.303Z,3.40
2023-03-04T16:53:25.686Z,6.80
2023-03-04T16:55:53.720Z,1.00
2023-03-04T16:58:21.808Z,6.00
2023-03-04T17:00:50.184Z,3.00
2023-03-04T17:03:18.632Z,4.00
2023-03-04T17:05:47.969Z,4.80
2023-03-04T17:08:17.466Z,4.80
2023-03-04T17:10:45.801Z,3.60
2023-03-04T17:13:13.932Z,4.00
2023-03-04T17:15:42.984Z,6.00
2023-03-04T17:18:12.724Z,4.80
2023-03-04T17:20:42.544Z,6.20
2023-03-04T17:23:11.788Z,1.00
2023-03-04T17:25:41.639Z,4.00
2023-03-04T17:28:09.991Z,1.00
2023-03-04T17:30:38.002Z,1.00
2023-03-04T17:33:06.046Z,0.80
2023-03-04T17:35:34.348Z,1.00
2023-03-04T17:38:02.725Z,5.20
2023-03-04T17:40:30.861Z,1.80
2023-03-04T17:43:00.513Z,1.00
2023-03-04T17:45:29.110Z,4.80
2023-03-04T17:47:57.225Z,1.00
2023-03-04T17:50:25.290Z,2.20
2023-03-04T17:52:53.949Z,3.00
2023-03-04T17:55:22.112Z,1.80
2023-03-04T17:58:00.363Z,3.00
2023-03-04T18:00:28.872Z,3.40
2023-03-04T18:02:57.118Z,4.00
2023-03-04T18:05:25.794Z,0.80
2023-03-04T18:07:54.049Z,5.60
2023-03-04T18:10:23.870Z,3.00
2023-03-04T18:12:57.380Z,0.60
2023-03-04T18:15:26.747Z,6.00
2023-03-04T18:18:02.526Z,3.00
2023-03-04T18:20:31.217Z,3.00
2023-03-04T18:22:59.524Z,1.00
2023-03-04T18:25:27.773Z,3.00
2023-03-04T18:27:57.675Z,1.00
2023-03-04T18:30:27.889Z,3.00
2023-03-04T18:32:56.415Z,3.00
2023-03-04T18:35:24.966Z,2.20
2023-03-04T18:37:53.097Z,3.00
2023-03-04T18:40:23.690Z,1.00
2023-03-04T18:42:52.345Z,3.80
2023-03-04T18:45:21.520Z,1.00
2023-03-04T18:47:52.798Z,6.00
2023-03-04T18:50:22.043Z,0.80
2023-03-04T18:52:50.288Z,1.40
2023-03-04T18:55:33.019Z,3.00
2023-03-04T18:58:07.095Z,3.00
2023-03-04T19:00:35.660Z,3.60
2023-03-04T19:03:06.941Z,0.00
2023-03-04T19:05:35.089Z,2.60
2023-03-04T19:08:03.314Z,3.20
2023-03-04T19:10:31.573Z,6.00
2023-03-04T19:13:00.426Z,3.00
2023-03-04T19:15:28.649Z,3.00
2023-03-04T19:17:56.762Z,3.00
2023-03-04T19:20:26.200Z,1.00
2023-03-04T19:22:58.897Z,1.00
2023-03-04T19:25:27.064Z,1.00
2023-03-04T19:27:56.728Z,1.00
2023-03-04T19:30:41.728Z,3.00
2023-03-04T19:33:10.354Z,1.80
2023-03-04T19:35:43.231Z,0.00
2023-03-04T19:38:11.812Z,1.40
2023-03-04T19:40:40.436Z,3.00
2023-03-04T19:43:08.614Z,3.00
2023-03-04T19:45:37.098Z,2.20
2023-03-04T19:48:05.697Z,2.80
2023-03-04T19:50:33.831Z,3.20
2023-03-04T19:53:03.668Z,2.60
2023-03-04T19:55:31.972Z,3.00
2023-03-04T19:58:00.130Z,2.20
2023-03-04T20:00:28.564Z,2.20
2023-03-04T20:03:03.071Z,3.00
2023-03-04T20:05:31.195Z,4.80
2023-03-04T20:08:00.610Z,1.00
2023-03-04T20:10:32.447Z,3.20
2023-03-04T20:13:01.100Z,1.80
2023-03-04T20:15:29.189Z,1.00
2023-03-04T20:17:57.331Z,3.00
2023-03-04T20:20:28.760Z,1.80
2023-03-04T20:22:56.808Z,4.80
2023-03-04T20:25:24.993Z,3.00
2023-03-04T20:27:55.222Z,3.40
2023-03-04T20:30:23.381Z,3.60
2023-03-04T20:32:52.479Z,1.00
2023-03-04T20:35:20.604Z,3.00
2023-03-04T20:37:48.978Z,3.00
2023-03-04T20:40:17.071Z,3.00
2023-03-04T20:42:45.129Z,3.20
2023-03-04T20:45:14.766Z,1.40
2023-03-04T20:47:42.804Z,3.00
2023-03-04T20:50:12.244Z,2.60
2023-03-04T20:52:40.435Z,3.00
2023-03-04T20:55:09.213Z,3.00
2023-03-04T20:57:37.336Z,3.00
2023-03-04T21:00:06.300Z,2.60
2023-03-04T21:02:35.930Z,3.00
2023-03-04T21:05:04.352Z,4.80
2023-03-04T21:07:32.672Z,3.00
2023-03-04T21:10:00.869Z,3.80
2023-03-04T21:12:29.204Z,1.80
2023-03-04T21:14:57.513Z,2.20
2023-03-04T21:17:25.565Z,1.00
2023-03-04T21:19:55.435Z,0.40
2023-03-04T21:22:23.456Z,2.20
2023-03-04T21:24:51.571Z,0.00
2023-03-04T21:27:19.928Z,0.40
2023-03-04T21:29:49.418Z,2.60
2023-03-04T21:32:24.309Z,3.80
2023-03-04T21:34:53.434Z,2.20
2023-03-04T21:37:23.012Z,1.40
2023-03-04T21:39:51.498Z,1.80
2023-03-04T21:42:19.572Z,1.00
2023-03-04T21:44:51.673Z,1.40
2023-03-04T21:47:20.246Z,1.00
2023-03-04T21:49:48.339Z,0.00
2023-03-04T21:52:16.399Z,1.00
2023-03-04T21:54:56.660Z,3.00
2023-03-04T21:57:25.052Z,1.80
2023-03-04T21:59:53.643Z,0.60
2023-03-04T22:02:23.411Z,1.00
2023-03-04T22:04:51.955Z,0.40
2023-03-04T22:07:20.088Z,0.20
2023-03-04T22:09:49.590Z,1.00
2023-03-04T22:12:19.534Z,1.00
2023-03-04T22:14:48.549Z,1.40
2023-03-04T22:17:17.146Z,1.80
2023-03-04T22:19:45.289Z,1.80
2023-03-04T22:22:13.337Z,3.00
2023-03-04T22:24:41.378Z,1.00
2023-03-04T22:27:10.871Z,2.60
2023-03-04T22:29:40.510Z,3.40
2023-03-04T22:32:08.636Z,3.00
2023-03-04T22:34:37.234Z,3.80
2023-03-04T22:37:05.834Z,0.00
2023-03-04T22:39:34.157Z,1.00
2023-03-04T22:42:02.233Z,1.00
2023-03-04T22:44:32.230Z,1.00
2023-03-04T22:47:00.327Z,2.20
2023-03-04T22:49:28.383Z,4.00
2023-03-04T22:51:56.439Z,0.00
2023-03-04T22:54:24.992Z,1.00
2023-03-04T22:56:53.112Z,2.60
2023-03-04T22:59:21.144Z,0.40
2023-03-04T23:01:50.608Z,4.80
2023-03-04T23:04:18.715Z,0.80
2023-03-04T23:06:46.750Z,0.00
2023-03-04T23:09:16.022Z,0.60
2023-03-04T23:11:44.058Z,0.60
2023-03-04T23:14:12.254Z,2.60
2023-03-04T23:16:43.292Z,0.00
2023-03-04T23:19:14.667Z,3.20
2023-03-04T23:21:42.744Z,0.00
2023-03-04T23:24:11.865Z,0.00
2023-03-04T23:26:41.077Z,0.00
2023-03-04T23:29:10.729Z,0.00
2023-03-04T23:31:38.842Z,0.00
2023-03-04T23:34:07.301Z,6.80
2023-03-04T23:36:37.322Z,1.00
2023-03-04T23:39:05.881Z,0.40
2023-03-04T23:41:34.587Z,0.00
2023-03-04T23:44:03.423Z,0.20
2023-03-04T23:46:31.560Z,0.80
2023-03-04T23:48:59.667Z,0.00
2023-03-04T23:51:28.922Z,0.00
2023-03-04T23:53:59.333Z,0.80
2023-03-04T23:56:28.622Z,0.60
2023-03-04T23:58:59.516Z,1.00
